createdAt,value
2022-09-15T00:00:38.213Z,97873.23
2022-09-15T00:03:30.992Z,97866.81
2022-09-15T00:06:08.995Z,97865.11
2022-09-15T00:08:45.760Z,97865.21
2022-09-15T00:11:31.655Z,97863.64
2022-09-15T00:14:07.948Z,97858.73
2022-09-15T00:16:43.147Z,97856.48
2022-09-15T00:19:11.998Z,97852.38
2022-09-15T00:21:46.050Z,97850.98
2022-09-15T00:24:19.447Z,97855.29
2022-09-15T00:26:53.736Z,97855.77
2022-09-15T00:29:31.361Z,97853.83
2022-09-15T00:32:03.166Z,97853.83
2022-09-15T00:34:39.086Z,97846.78
2022-09-15T00:37:11.449Z,97847.53
2022-09-15T00:39:41.977Z,97847.04
2022-09-15T00:42:22.857Z,97844.73
2022-09-15T00:44:56.975Z,97849.20
2022-09-15T00:47:38.844Z,97854.40
2022-09-15T00:50:16.216Z,97853.15
2022-09-15T00:52:51.733Z,97855.17
2022-09-15T00:55:30.513Z,97852.27
2022-09-15T00:57:59.525Z,97846.69
2022-09-15T01:00:45.675Z,97839.77
2022-09-15T01:03:20.642Z,97831.45
2022-09-15T01:06:12.757Z,97831.55
2022-09-15T01:09:01.171Z,97835.52
2022-09-15T01:11:29.327Z,97835.59
2022-09-15T01:14:01.156Z,97832.36
2022-09-15T01:16:37.609Z,97831.15
2022-09-15T01:19:13.122Z,97826.20
2022-09-15T01:21:47.592Z,97823.45
2022-09-15T01:24:36.389Z,97820.31
2022-09-15T01:27:40.491Z,97820.69
2022-09-15T01:30:23.118Z,97812.83
2022-09-15T01:33:08.484Z,97815.52
2022-09-15T01:35:48.364Z,97817.39
2022-09-15T01:38:25.809Z,97810.48
2022-09-15T01:41:09.872Z,97802.46
2022-09-15T01:44:05.708Z,97793.33
2022-09-15T01:46:45.646Z,97795.73
2022-09-15T01:49:28.816Z,97799.27
2022-09-15T01:52:06.373Z,97802.35
2022-09-15T01:54:40.633Z,97807.18
2022-09-15T01:57:14.122Z,97803.45
2022-09-15T01:59:45.843Z,97799.35
2022-09-15T02:02:35.485Z,97802.32
2022-09-15T02:05:14.744Z,97802.25
2022-09-15T02:07:55.028Z,97807.41
2022-09-15T02:10:35.396Z,97803.04
2022-09-15T02:13:17.263Z,97801.30
2022-09-15T02:15:48.584Z,97797.20
2022-09-15T02:18:19.339Z,97798.32
2022-09-15T02:20:59.736Z,97809.39
2022-09-15T02:23:38.001Z,97796.46
2022-09-15T02:26:14.303Z,97798.45
2022-09-15T02:28:49.342Z,97794.55
2022-09-15T02:31:18.910Z,97790.95
2022-09-15T02:33:57.843Z,97794.06
2022-09-15T02:36:32.560Z,97793.23
2022-09-15T02:39:14.339Z,97783.16
2022-09-15T02:41:47.595Z,97773.80
2022-09-15T02:44:23.712Z,97768.79
2022-09-15T02:46:52.630Z,97767.33
2022-09-15T02:49:30.645Z,97768.02
2022-09-15T02:52:09.423Z,97781.14
2022-09-15T02:54:41.081Z,97786.52
2022-09-15T02:57:09.496Z,97785.77
2022-09-15T03:00:00.781Z,97779.05
2022-09-15T03:02:32.364Z,97778.55
2022-09-15T03:05:04.471Z,97774.84
2022-09-15T03:07:38.110Z,97773.45
2022-09-15T03:10:07.125Z,97775.98
2022-09-15T03:12:42.789Z,97770.70
2022-09-15T03:15:14.250Z,97773.55
2022-09-15T03:17:43.632Z,97782.96
2022-09-15T03:20:17.893Z,97783.34
2022-09-15T03:22:45.996Z,97779.25
2022-09-15T03:25:24.528Z,97781.13
2022-09-15T03:27:56.643Z,97782.10
2022-09-15T03:30:24.676Z,97777.14
2022-09-15T03:32:53.894Z,97779.99
2022-09-15T03:35:25.243Z,97782.04
2022-09-15T03:37:57.585Z,97774.96
2022-09-15T03:40:29.715Z,97774.19
2022-09-15T03:43:02.158Z,97771.81
2022-09-15T03:45:33.719Z,97761.59
2022-09-15T03:48:13.660Z,97754.75
2022-09-15T03:50:43.783Z,97751.95
2022-09-15T03:53:31.918Z,97750.65
2022-09-15T03:56:12.331Z,97751.52
2022-09-15T03:58:42.307Z,97759.58
2022-09-15T04:01:10.521Z,97760.73
2022-09-15T04:03:46.364Z,97755.05
2022-09-15T04:06:21.063Z,97750.70
2022-09-15T04:09:14.241Z,97753.33
2022-09-15T04:11:44.134Z,97754.83
2022-09-15T04:14:35.683Z,97760.15
2022-09-15T04:17:33.781Z,97764.23
2022-09-15T04:20:03.950Z,97760.40
2022-09-15T04:22:42.908Z,97762.64
2022-09-15T04:25:33.900Z,97766.13
2022-09-15T04:28:03.808Z,97755.89
2022-09-15T04:31:46.391Z,97749.11
2022-09-15T04:39:47.146Z,97748.16
2022-09-15T04:43:26.825Z,97761.83
2022-09-15T04:49:38.228Z,97764.36
2022-09-15T04:52:09.877Z,97763.30
2022-09-15T04:54:47.180Z,97770.74
2022-09-15T04:57:44.727Z,97771.91
2022-09-15T05:01:42.861Z,97765.23
2022-09-15T05:05:26.747Z,97766.35
2022-09-15T05:27:10.149Z,97716.70
2022-09-15T05:30:09.760Z,97719.79
2022-09-15T05:33:02.423Z,97716.90
2022-09-15T05:35:33.076Z,97718.34
2022-09-15T05:38:01.168Z,97716.75
2022-09-15T05:40:43.153Z,97710.67
2022-09-15T05:43:13.208Z,97707.56
2022-09-15T05:45:44.766Z,97707.27
2022-09-15T05:48:14.512Z,97700.69
2022-09-15T05:50:49.733Z,97702.07
2022-09-15T05:53:18.524Z,97701.98
2022-09-15T05:55:55.310Z,97705.83
2022-09-15T05:58:23.708Z,97702.89
2022-09-15T06:00:56.677Z,97697.67
2022-09-15T06:03:30.079Z,97688.06
2022-09-15T06:06:01.142Z,97687.15
2022-09-15T06:08:36.720Z,97694.73
2022-09-15T06:11:06.572Z,97697.87
2022-09-15T06:13:37.415Z,97705.64
2022-09-15T06:16:08.633Z,97707.36
2022-09-15T06:18:37.756Z,97701.98
2022-09-15T06:21:09.925Z,97693.50
2022-09-15T06:23:47.170Z,97694.50
2022-09-15T06:26:20.404Z,97697.06
2022-09-15T06:28:57.116Z,97693.61
2022-09-15T06:31:26.651Z,97688.84
2022-09-15T06:33:56.314Z,97683.06
2022-09-15T06:36:27.842Z,97684.02
2022-09-15T06:39:02.996Z,97682.87
2022-09-15T06:41:52.473Z,97680.58
2022-09-15T06:44:23.824Z,97685.78
2022-09-15T06:46:52.735Z,97683.30
2022-09-15T06:49:22.197Z,97684.90
2022-09-15T06:51:53.572Z,97686.33
2022-09-15T06:54:22.899Z,97684.58
2022-09-15T06:56:55.705Z,97678.25
2022-09-15T06:59:24.894Z,97683.98
2022-09-15T07:02:04.080Z,97690.98
2022-09-15T07:04:43.284Z,97680.44
2022-09-15T07:07:13.777Z,97686.94
2022-09-15T07:09:48.930Z,97693.36
2022-09-15T07:12:21.472Z,97692.96
2022-09-15T07:16:03.610Z,97689.40
2022-09-15T07:23:16.842Z,97696.34
2022-09-15T07:29:51.288Z,97703.79
2022-09-15T07:33:09.289Z,97707.66
2022-09-15T07:36:06.243Z,97708.96
2022-09-15T07:38:36.571Z,97716.34
2022-09-15T07:41:21.278Z,97725.86
2022-09-15T07:43:56.756Z,97724.67
2022-09-15T07:47:25.094Z,97719.95
2022-09-15T07:49:58.160Z,97721.09
2022-09-15T07:52:26.393Z,97714.58
2022-09-15T07:54:54.711Z,97703.42
2022-09-15T07:57:28.254Z,97711.68
2022-09-15T07:59:59.616Z,97718.55
2022-09-15T08:02:27.926Z,97716.96
2022-09-15T08:05:02.274Z,97711.09
2022-09-15T08:08:00.906Z,97711.33
2022-09-15T08:10:31.043Z,97708.39
2022-09-15T08:13:42.220Z,97703.17
2022-09-15T08:17:01.637Z,97704.52
2022-09-15T08:47:39.261Z,97690.67
2022-09-15T08:50:46.182Z,97688.69
2022-09-15T08:53:35.104Z,97692.62
2022-09-15T08:56:10.184Z,97683.09
2022-09-15T08:58:47.231Z,97674.41
2022-09-15T09:01:38.449Z,97679.21
2022-09-15T09:04:19.975Z,97686.55
2022-09-15T09:06:58.705Z,97687.98
2022-09-15T09:09:47.609Z,97684.13
2022-09-15T09:12:46.237Z,97687.95
2022-09-15T09:15:27.315Z,97690.75
2022-09-15T09:18:23.520Z,97687.77
2022-09-15T09:21:00.441Z,97678.17
2022-09-15T09:23:32.318Z,97670.52
2022-09-15T09:26:02.442Z,97672.66
2022-09-15T09:28:32.401Z,97669.81
2022-09-15T09:31:05.828Z,97672.70
2022-09-15T09:33:53.861Z,97671.73
2022-09-15T09:36:28.333Z,97669.48
2022-09-15T09:38:57.119Z,97673.03
2022-09-15T09:41:37.915Z,97675.10
2022-09-15T09:44:14.657Z,97673.80
2022-09-15T09:46:45.878Z,97664.95
2022-09-15T09:49:30.483Z,97655.67
2022-09-15T09:52:03.443Z,97648.05
2022-09-15T09:54:39.369Z,97638.22
2022-09-15T09:57:17.688Z,97630.35
2022-09-15T09:59:57.467Z,97626.96
2022-09-15T10:02:27.640Z,97627.09
2022-09-15T10:05:19.402Z,97624.92
2022-09-15T10:07:51.678Z,97626.72
2022-09-15T10:10:21.590Z,97620.35
2022-09-15T10:13:21.432Z,97614.21
2022-09-15T10:16:43.630Z,97610.86
2022-09-15T10:33:23.818Z,97624.42
2022-09-15T10:36:12.968Z,97621.65
2022-09-15T10:39:09.094Z,97619.20
2022-09-15T10:58:10.328Z,97623.17
2022-09-15T11:00:48.228Z,97620.48
2022-09-15T11:03:42.449Z,97632.20
2022-09-15T11:06:13.601Z,97629.89
2022-09-15T11:09:05.023Z,97628.95
2022-09-15T11:11:55.020Z,97629.48
2022-09-15T11:14:27.238Z,97629.32
2022-09-15T11:17:30.422Z,97629.73
2022-09-15T11:20:18.071Z,97634.48
2022-09-15T11:23:05.048Z,97632.30
2022-09-15T11:25:49.085Z,97629.92
2022-09-15T11:28:27.723Z,97621.30
2022-09-15T11:31:48.786Z,97626.73
2022-09-15T11:35:03.694Z,97629.66
2022-09-15T11:37:50.973Z,97619.86
2022-09-15T11:40:52.904Z,97616.59
2022-09-15T11:43:39.696Z,97613.52
2022-09-15T11:46:13.856Z,97609.37
2022-09-15T11:49:03.577Z,97605.88
2022-09-15T11:51:44.393Z,97592.23
2022-09-15T11:54:23.238Z,97593.51
2022-09-15T11:56:52.585Z,97590.73
2022-09-15T12:00:04.413Z,97595.80
2022-09-15T12:07:11.107Z,97589.23
2022-09-15T12:21:55.923Z,97574.87
2022-09-15T12:25:21.895Z,97565.86
2022-09-15T12:31:46.382Z,97568.67
2022-09-15T12:34:53.061Z,97577.73
2022-09-15T12:37:47.980Z,97574.05
2022-09-15T12:40:43.722Z,97577.73
2022-09-15T12:43:20.643Z,97573.39
2022-09-15T12:46:24.869Z,97576.83
2022-09-15T12:49:03.433Z,97574.73
2022-09-15T12:51:34.504Z,97572.20
2022-09-15T12:54:08.847Z,97573.67
2022-09-15T12:56:48.139Z,97569.15
2022-09-15T12:59:27.276Z,97567.67
2022-09-15T13:02:03.965Z,97561.31
2022-09-15T13:04:42.075Z,97561.88
2022-09-15T13:07:22.088Z,97564.16
2022-09-15T13:10:00.040Z,97569.76
2022-09-15T13:12:50.505Z,97566.70
2022-09-15T13:15:31.772Z,97565.43
2022-09-15T13:18:08.673Z,97558.56
2022-09-15T13:20:42.921Z,97558.54
2022-09-15T13:23:33.622Z,97568.60
2022-09-15T13:26:07.196Z,97568.48
2022-09-15T13:28:38.973Z,97567.68
2022-09-15T13:31:35.896Z,97559.14
2022-09-15T13:38:06.775Z,97558.88
2022-09-15T13:40:54.740Z,97549.39
2022-09-15T13:43:45.741Z,97559.09
2022-09-15T13:46:41.593Z,97568.29
2022-09-15T13:49:22.402Z,97577.42
2022-09-15T13:52:04.238Z,97584.61
2022-09-15T14:00:56.279Z,97572.08
2022-09-15T14:03:37.126Z,97576.61
2022-09-15T14:06:34.906Z,97573.30
2022-09-15T14:09:26.202Z,97574.66
2022-09-15T14:12:03.592Z,97580.26
2022-09-15T14:17:49.606Z,97589.69
2022-09-15T14:20:32.635Z,97589.80
2022-09-15T14:23:38.785Z,97574.22
2022-09-15T14:26:16.800Z,97557.52
2022-09-15T14:28:56.947Z,97550.08
2022-09-15T14:31:44.451Z,97547.55
2022-09-15T14:34:42.054Z,97547.02
2022-09-15T14:37:32.998Z,97543.58
2022-09-15T14:40:35.033Z,97539.20
2022-09-15T14:43:44.146Z,97533.00
2022-09-15T14:46:19.466Z,97525.67
2022-09-15T14:49:14.295Z,97523.39
2022-09-15T15:03:14.764Z,97536.77
2022-09-15T15:07:13.171Z,97538.74
2022-09-15T15:10:41.569Z,97536.93
2022-09-15T15:17:40.080Z,97543.19
2022-09-15T15:20:45.769Z,97537.77
2022-09-15T15:24:03.679Z,97531.63
2022-09-15T15:26:54.038Z,97526.34
2022-09-15T15:29:52.045Z,97532.98
2022-09-15T15:32:45.513Z,97533.66
2022-09-15T15:35:48.043Z,97535.95
2022-09-15T15:39:29.002Z,97540.66
2022-09-15T15:43:16.123Z,97548.38
2022-09-15T15:45:58.912Z,97554.13
2022-09-15T15:49:05.755Z,97557.06
2022-09-15T15:52:10.255Z,97554.41
2022-09-15T15:55:20.785Z,97552.27
2022-09-15T15:58:12.601Z,97555.80
2022-09-15T16:03:58.318Z,97553.97
2022-09-15T16:06:42.224Z,97555.91
2022-09-15T16:09:44.840Z,97563.22
2022-09-15T16:12:30.728Z,97564.07
2022-09-15T16:15:35.149Z,97563.99
2022-09-15T16:18:08.294Z,97559.91
2022-09-15T16:20:39.052Z,97563.95
2022-09-15T16:23:07.632Z,97565.83
2022-09-15T16:25:40.053Z,97560.75
2022-09-15T16:28:12.242Z,97556.75
2022-09-15T16:30:44.093Z,97554.55
2022-09-15T16:33:16.425Z,97546.29
2022-09-15T16:35:49.573Z,97546.36
2022-09-15T16:38:21.021Z,97541.50
2022-09-15T16:40:53.786Z,97530.61
2022-09-15T16:43:42.760Z,97526.38
2022-09-15T16:46:15.888Z,97524.48
2022-09-15T16:48:44.541Z,97520.39
2022-09-15T16:51:25.283Z,97513.46
2022-09-15T16:53:56.956Z,97511.83
2022-09-15T16:56:25.154Z,97514.36
2022-09-15T16:58:59.485Z,97511.02
2022-09-15T17:01:28.159Z,97503.73
2022-09-15T17:04:01.966Z,97497.35
2022-09-15T17:06:33.619Z,97501.30
2022-09-15T17:09:01.618Z,97508.96
2022-09-15T17:11:34.821Z,97507.14
2022-09-15T17:14:03.261Z,97502.03
2022-09-15T17:16:54.136Z,97502.23
2022-09-15T17:19:40.458Z,97504.44
2022-09-15T17:22:27.229Z,97506.98
2022-09-15T17:24:57.667Z,97514.85
2022-09-15T17:27:27.155Z,97522.98
2022-09-15T17:29:59.807Z,97523.36
2022-09-15T17:32:41.190Z,97523.65
2022-09-15T17:35:34.701Z,97520.42
2022-09-15T17:38:11.073Z,97517.80
2022-09-15T17:40:42.404Z,97514.88
2022-09-15T17:43:18.862Z,97516.96
2022-09-15T17:45:50.755Z,97518.13
2022-09-15T17:48:33.858Z,97519.58
2022-09-15T17:51:15.401Z,97515.89
2022-09-15T17:53:48.029Z,97518.88
2022-09-15T17:56:25.982Z,97526.87
2022-09-15T17:59:00.269Z,97530.84
2022-09-15T18:01:37.578Z,97522.64
2022-09-15T18:04:06.651Z,97522.98
2022-09-15T18:06:45.371Z,97528.98
2022-09-15T18:09:23.213Z,97529.17
2022-09-15T18:12:00.270Z,97527.53
2022-09-15T18:14:39.968Z,97526.37
2022-09-15T18:17:17.234Z,97528.21
2022-09-15T18:19:53.044Z,97530.98
2022-09-15T18:22:27.955Z,97533.98
2022-09-15T18:24:58.358Z,97532.32
2022-09-15T18:27:31.712Z,97524.08
2022-09-15T18:30:02.120Z,97518.86
2022-09-15T18:32:33.583Z,97519.48
2022-09-15T18:35:07.417Z,97520.39
2022-09-15T18:37:46.426Z,97525.31
2022-09-15T18:40:28.393Z,97520.26
2022-09-15T18:42:59.120Z,97514.81
2022-09-15T18:45:27.409Z,97517.24
2022-09-15T18:51:57.933Z,97518.89
2022-09-15T18:54:26.108Z,97514.04
2022-09-15T18:56:58.585Z,97515.86
2022-09-15T18:59:29.979Z,97516.56
2022-09-15T19:01:59.191Z,97511.48
2022-09-15T19:04:32.713Z,97506.92
2022-09-15T19:07:10.582Z,97503.06
2022-09-15T19:09:38.753Z,97495.32
2022-09-15T19:12:09.332Z,97480.04
2022-09-15T19:14:37.317Z,97485.25
2022-09-15T19:17:12.458Z,97489.33
2022-09-15T19:19:41.718Z,97487.16
2022-09-15T19:22:15.502Z,97485.20
2022-09-15T19:24:50.665Z,97479.21
2022-09-15T19:27:23.495Z,97472.49
2022-09-15T19:29:52.974Z,97471.92
2022-09-15T19:32:24.167Z,97473.86
2022-09-15T19:34:56.060Z,97478.13
2022-09-15T19:37:24.298Z,97480.35
2022-09-15T19:39:52.433Z,97481.23
2022-09-15T19:42:21.223Z,97482.50
2022-09-15T19:44:50.612Z,97484.39
2022-09-15T19:47:19.521Z,97488.28
2022-09-15T19:49:47.879Z,97489.55
2022-09-15T19:53:50.419Z,97489.42
2022-09-15T19:57:04.921Z,97489.94
2022-09-15T19:59:52.025Z,97491.38
2022-09-15T20:02:34.286Z,97495.89
2022-09-15T20:05:03.690Z,97498.13
2022-09-15T20:07:33.488Z,97501.67
2022-09-15T20:10:28.813Z,97496.48
2022-09-15T20:13:07.276Z,97501.59
2022-09-15T20:15:36.853Z,97502.30
2022-09-15T20:18:08.331Z,97502.27
2022-09-15T20:21:00.611Z,97497.80
2022-09-15T20:23:33.902Z,97498.01
2022-09-15T20:26:21.981Z,97498.50
2022-09-15T20:29:21.842Z,97504.70
2022-09-15T20:32:38.969Z,97498.98
2022-09-15T20:35:17.946Z,97495.25
2022-09-15T20:37:52.494Z,97496.23
2022-09-15T20:40:31.576Z,97498.70
2022-09-15T20:43:06.991Z,97498.70
2022-09-15T20:45:45.667Z,97499.10
2022-09-15T20:48:20.678Z,97500.55
2022-09-15T20:50:49.285Z,97497.23
2022-09-15T20:53:40.431Z,97496.09
2022-09-15T20:56:08.821Z,97498.24
2022-09-15T20:58:37.545Z,97499.27
2022-09-15T21:01:05.788Z,97498.93
2022-09-15T21:03:34.451Z,97494.70
2022-09-15T21:06:04.420Z,97494.91
2022-09-15T21:08:32.902Z,97493.40
2022-09-15T21:11:09.088Z,97489.63
2022-09-15T21:13:38.063Z,97493.29
2022-09-15T21:16:08.516Z,97493.16
2022-09-15T21:18:38.433Z,97485.69
2022-09-15T21:21:11.017Z,97480.61
2022-09-15T21:23:43.116Z,97480.11
2022-09-15T21:26:14.546Z,97480.61
2022-09-15T21:28:46.620Z,97480.83
2022-09-15T21:31:16.116Z,97483.92
2022-09-15T21:33:47.243Z,97492.77
2022-09-15T21:36:20.621Z,97489.59
2022-09-15T21:38:51.491Z,97485.59
2022-09-15T21:41:22.831Z,97482.29
2022-09-15T21:43:55.673Z,97478.83
2022-09-15T21:46:25.716Z,97471.22
2022-09-15T21:48:57.766Z,97477.63
2022-09-15T21:51:31.430Z,97475.86
2022-09-15T21:54:02.178Z,97479.48
2022-09-15T21:56:33.348Z,97476.08
2022-09-15T21:59:02.374Z,97472.97
2022-09-15T22:01:34.814Z,97472.79
2022-09-15T22:04:06.239Z,97472.73
2022-09-15T22:06:40.874Z,97468.71
2022-09-15T22:09:15.184Z,97465.04
2022-09-15T22:11:43.336Z,97456.17
2022-09-15T22:14:14.455Z,97453.93
2022-09-15T22:16:44.663Z,97449.80
2022-09-15T22:19:12.923Z,97455.67
2022-09-15T22:21:46.448Z,97451.48
2022-09-15T22:24:18.047Z,97455.27
2022-09-15T22:26:46.555Z,97459.52
2022-09-15T22:29:14.687Z,97462.39
2022-09-15T22:31:45.035Z,97463.73
2022-09-15T22:34:14.215Z,97469.92
2022-09-15T22:36:42.185Z,97465.48
2022-09-15T22:39:15.703Z,97456.59
2022-09-15T22:41:44.235Z,97454.83
2022-09-15T22:44:18.956Z,97454.96
2022-09-15T22:46:48.239Z,97460.27
2022-09-15T22:49:16.901Z,97455.73
2022-09-15T22:51:46.720Z,97452.19
2022-09-15T22:54:15.143Z,97447.69
2022-09-15T22:56:46.911Z,97449.09
2022-09-15T22:59:19.073Z,97448.73
2022-09-15T23:01:50.700Z,97443.45
2022-09-15T23:04:21.181Z,97440.23
2022-09-15T23:06:53.153Z,97439.89
2022-09-15T23:09:21.176Z,97432.06
2022-09-15T23:11:54.380Z,97433.20
2022-09-15T23:14:29.372Z,97436.06
2022-09-15T23:17:03.409Z,97432.27
2022-09-15T23:19:31.601Z,97427.97
2022-09-15T23:22:03.654Z,97431.81
2022-09-15T23:24:37.179Z,97439.33
2022-09-15T23:27:09.707Z,97443.77
2022-09-15T23:29:40.562Z,97442.38
2022-09-15T23:32:08.842Z,97435.93
2022-09-15T23:34:38.231Z,97433.85
2022-09-15T23:37:06.271Z,97429.34
2022-09-15T23:39:34.382Z,97431.73
2022-09-15T23:42:02.468Z,97433.21
2022-09-15T23:44:34.719Z,97433.10
2022-09-15T23:47:02.793Z,97434.42
2022-09-15T23:49:37.721Z,97433.52
2022-09-15T23:52:05.814Z,97432.97
2022-09-15T23:54:36.926Z,97428.67
2022-09-15T23:57:04.996Z,97429.43
2022-09-15T23:59:38.306Z,97425.58
